Terminal Aerodrome Forecast
Issued by NWS Wichita, KS

Home | Current Version | Previous Version | Graphics & Text | Print | Product List | Glossary On
Versions: 1 2 3 4 5 6 7 8 9 10 11 12 13 14 15 16 17 18
000
FTUS43 KICT 292326
TAFICT
TAF
KICT 292326Z 3000/3024 20007KT P6SM SKC
     FM300900 23010KT P6SM SKC
     FM301300 28012KT P6SM SCT200
     FM301400 33014KT P6SM SCT200
     FM301700 34016G23KT P6SM SCT200=

USA.gov is the U.S. government's official web portal to all federal, state and local government web resources and services.